• Join FlightAware (Why Join?)
  • Login
  • US Flag 
12:25PM EDT


 

Airport Tracker/Info


-or-


 

Live Flight TrackerFlight Track Log ✈ N53NW ✈ 18-Oct-2013 ✈ KGKY - KSAT

Flight Track Log - Related Links

Times and Time Zones

All times are in EDT time to prevent confusion due to time zone crossing. See the N53NW flight status page for this flight to view local times or setup timezone preferences in your user account.

Time Position Orientation Groundspeed Altitude Reporting Facility
EDT Latitude Longitude Course Direction KTS MPH feet Rate Location/Type
12:22PM 32.6500 -97.0833 203° Southwest 151 174 1,200  Level Dallas / Fort Worth TRACON
12:23PM 32.6167 -97.1000 203° Southwest 209 241 2,500 2,400 Climbing Dallas / Fort Worth TRACON
12:24PM 32.5533 -97.1053 184° South 212 244 5,500 3,120 Climbing Fort Worth Center
12:25PM 32.4989 -97.0956 171° South 219 252 8,700 3,240 Climbing Fort Worth Center
12:26PM 32.4300 -97.0861 173° South 224 258 12,000 2,580 Climbing Fort Worth Center
12:27PM 32.3611 -97.0739 171° South 237 273 13,900 2,100 Climbing Fort Worth Center
12:28PM 32.2839 -97.0619 173° South 279 321 16,300 2,160 Climbing Fort Worth Center
12:29PM 32.2025 -97.0647 182° South 286 329 18,300 1,800 Climbing Fort Worth Center
12:30PM 32.1211 -97.0675 182° South 291 335 20,000 840 Climbing Fort Worth Center
12:31PM 32.0311 -97.0678 180° South 302 348 20,000  Level Fort Worth Center
12:32PM 31.9497 -97.0681 180° South 322 371 20,000  Level Fort Worth Center
12:33PM 31.8517 -97.0711 182° South 329 379 20,000  Level Fort Worth Center
12:34PM 31.7619 -97.0761 183° South 323 372 20,000  Level Fort Worth Center
12:34PM 31.7233 -97.0761 180° South 321 369 20,000  Level Houston Center
12:35PM 31.6339 -97.0783 181° South 318 366 20,000  Level Houston Center
12:36PM 31.5461 -97.0811 182° South 312 359 20,000  Level Houston Center
12:37PM 31.4614 -97.1100 196° South 313 360 20,000  Level Houston Center
12:39PM 31.3658 -97.1475 199° South 309 356 20,000  Level Houston Center
12:40PM 31.2836 -97.1789 198° South 309 356 20,000  Level Houston Center
12:41PM 31.2008 -97.2119 199° South 310 357 20,000  Level Houston Center
12:42PM 31.1192 -97.2436 198° South 309 356 20,000  Level Houston Center
12:43PM 31.0378 -97.2764 199° South 307 353 20,000  Level Houston Center
12:44PM 30.9414 -97.3133 198° South 320 368 20,000  Level Houston Center
12:45PM 30.8589 -97.3450 198° South 317 365 20,000  Level Houston Center
12:46PM 30.7767 -97.3764 198° South 310 357 20,000 -540 Level Houston Center
12:47PM 30.6942 -97.4083 198° South 310 357 19,000 -1,260 Descending Houston Center
12:48PM 30.6142 -97.4400 199° South 304 350 17,500 -1,680 Descending Houston Center
12:49PM 30.5225 -97.4753 198° South 296 341 15,600 -1,680 Descending Houston Center
12:50PM 30.4439 -97.5047 198° South 293 337 14,000 -1,620 Descending Houston Center
12:51PM 30.3686 -97.5367 200° South 287 330 12,300 -1,320 Descending Houston Center
12:52PM 30.3036 -97.5817 211° Southwest 272 313 11,300 -1,020 Descending Houston Center
12:53PM 30.2367 -97.6297 212° Southwest 279 321 10,200 -660 Descending Houston Center
12:54PM 30.1697 -97.6756 211° Southwest 277 319 10,000 -120 Descending Houston Center
12:55PM 30.1050 -97.7192 210° Southwest 268 308 10,000  Level Houston Center
12:56PM 30.0275 -97.7719 211° Southwest 275 316 10,000  Level Houston Center
12:57PM 30.0033 -97.7906 214° Southwest 278 320 10,000  Level Houston Center
12:57PM 29.9617 -97.8175 209° Southwest 280 322 10,000  Level Houston Center
12:57PM 29.9606 -97.8172 168° South 277 319 10,000  Level Houston Center
12:58PM 29.8992 -97.8664 215° Southwest 276 318 10,000  Level Houston Center
12:58PM 29.8942 -97.8719 224° Southwest 272 313 10,000  Level Houston Center
12:59PM 29.8600 -97.9494 243° Southwest 271 312 10,000  Level Houston Center
01:00PM 29.8283 -98.0272 245° Southwest 269 310 10,000  Level Houston Center
01:00PM 29.8250 -98.0325 234° Southwest 269 310 10,000 -600 Level Houston Center
01:01PM 29.7975 -98.0986 244° Southwest 272 313 9,500 -600 Descending Houston Center
01:01PM 29.7922 -98.1111 244° Southwest 273 314 9,400 -1,080 Descending Houston Center
01:02PM 29.7631 -98.1797 244° Southwest 261 300 8,300 -1,200 Descending Houston Center
01:02PM 29.7583 -98.1903 243° Southwest 260 299 8,200 -1,200 Descending Houston Center
01:03PM 29.7322 -98.2533 245° Southwest 256 295 7,100 -1,080 Descending Houston Center
01:03PM 29.7275 -98.2639 243° Southwest 256 295 7,100 -1,140 Level Houston Center
01:04PM 29.6994 -98.3297 244° Southwest 250 288 6,000 -960 Descending Houston Center
01:04PM 29.6944 -98.3414 244° Southwest 252 290 6,100 -120 Climbing Houston Center
01:05PM 29.6733 -98.3906 244° Southwest 252 290 5,900 -120 Descending Houston Center
01:05PM 29.6647 -98.4106 244° Southwest 242 278 6,000 -540 Climbing Houston Center
01:06PM 29.6539 -98.4528 254° West 187 215 5,400 -900 Descending Houston Center
01:06PM 29.6658 -98.4700 309° West 220 253 5,100 -480 Descending Houston Center
01:07PM 29.6928 -98.5108 307° West 208 239 4,900 -120 Descending Houston Center
01:08PM 29.7011 -98.5208 314° West 207 238 5,000 60 Climbing Houston Center
01:08PM 29.7361 -98.5706 309° West 215 247 5,000  Level Houston Center
01:09PM 29.7406 -98.5781 304° West 213 245 5,000 -120 Level Houston Center
01:09PM 29.7364 -98.6186 263° West 159 183 4,900 -120 Descending Houston Center
01:10PM 29.7319 -98.6233 223° Southwest 162 186 4,900 -1,260 Level Houston Center
01:10PM 29.7086 -98.6386 210° Southwest 135 155 3,900 -1,380 Descending Houston Center
01:11PM 29.6928 -98.6406 186° South 146 168 3,500 -900 Descending Houston Center
01:11PM 29.6675 -98.6244 151° Southeast 147 169 2,900 -480 Descending Houston Center
01:12PM 29.6575 -98.6175 149° Southeast 147 169 3,000  Climbing Houston Center
01:12PM 29.6319 -98.6022 153° Southeast 147 169 2,900  Descending Houston Center
01:13PM 29.6211 -98.5856 127° Southeast 157 181 3,000 -300 Climbing Houston Center
01:13PM 29.6033 -98.5647 134° Southeast 143 165 2,600 -540 Descending Houston Center
01:14PM 29.5953 -98.5531 128° Southeast 143 165 2,500 -660 Descending Houston Center
01:14PM 29.5819 -98.5383 136° Southeast 131 151 2,000 -720 Descending Houston Center
01:15PM 29.5711 -98.5217 127° Southeast 126 145 1,800 -720 Descending Houston Center
01:15PM 29.5603 -98.5075 131° Southeast 114 131 1,300 -600 Descending Houston Center
01:16PM 29.5508 -98.4944 130° Southeast 115 132 1,200 -240 Descending Houston Center